createdAt,value
2019-02-21T00:01:06.465Z,65.30
2019-02-21T00:03:32.892Z,65.30
2019-02-21T00:05:59.276Z,65.20
2019-02-21T00:08:25.923Z,65.20
2019-02-21T00:10:52.310Z,65.20
2019-02-21T00:13:18.783Z,65.20
2019-02-21T00:15:46.720Z,65.40
2019-02-21T00:18:13.032Z,65.40
2019-02-21T00:20:39.354Z,65.60
2019-02-21T00:23:05.649Z,65.70
2019-02-21T00:25:32.078Z,65.80
2019-02-21T00:27:58.381Z,66.00
2019-02-21T00:30:34.555Z,65.80
2019-02-21T00:32:53.149Z,66.50
2019-02-21T00:35:19.758Z,66.00
2019-02-21T00:37:46.199Z,66.90
2019-02-21T00:40:12.644Z,65.90
2019-02-21T00:42:38.981Z,66.10
2019-02-21T00:45:05.326Z,65.60
2019-02-21T00:47:31.635Z,65.90
2019-02-21T00:49:57.967Z,66.00
2019-02-21T00:52:24.405Z,65.90
2019-02-21T00:54:50.722Z,65.90
2019-02-21T00:57:17.267Z,65.90
2019-02-21T00:59:43.905Z,65.90
2019-02-21T01:02:10.320Z,65.90
2019-02-21T01:04:36.611Z,65.90
2019-02-21T01:07:02.914Z,65.90
2019-02-21T01:09:29.258Z,65.80
2019-02-21T01:11:55.560Z,65.70
2019-02-21T01:14:22.009Z,65.70
2019-02-21T01:16:48.438Z,65.80
2019-02-21T01:19:15.046Z,65.90
2019-02-21T01:21:41.384Z,65.70
2019-02-21T01:24:07.805Z,65.90
2019-02-21T01:26:34.341Z,65.90
2019-02-21T01:29:00.854Z,65.90
2019-02-21T01:31:27.473Z,65.80
2019-02-21T01:33:53.888Z,65.80
2019-02-21T01:36:20.211Z,65.90
2019-02-21T01:38:46.812Z,65.80
2019-02-21T01:41:13.213Z,65.90
2019-02-21T01:43:39.727Z,65.80
2019-02-21T01:46:06.138Z,65.80
2019-02-21T01:48:32.558Z,65.70
2019-02-21T01:50:59.070Z,65.90
2019-02-21T01:53:25.484Z,65.90
2019-02-21T01:55:52.005Z,65.90
2019-02-21T01:58:18.516Z,65.80
2019-02-21T02:00:44.941Z,65.90
2019-02-21T02:03:11.364Z,66.00
2019-02-21T02:05:37.766Z,66.00
2019-02-21T02:08:04.465Z,66.00
2019-02-21T02:10:30.976Z,65.90
2019-02-21T02:12:57.271Z,66.00
2019-02-21T02:15:23.586Z,65.90
2019-02-21T02:17:49.897Z,65.80
2019-02-21T02:20:16.230Z,65.80
2019-02-21T02:22:42.650Z,65.80
2019-02-21T02:25:09.170Z,65.90
2019-02-21T02:27:35.582Z,66.00
2019-02-21T02:30:01.994Z,65.90
2019-02-21T02:32:28.523Z,65.80
2019-02-21T02:34:55.036Z,65.70
2019-02-21T02:37:21.449Z,65.60
2019-02-21T02:39:47.946Z,65.70
2019-02-21T02:42:14.526Z,65.70
2019-02-21T02:44:41.050Z,65.60
2019-02-21T02:47:07.373Z,65.50
2019-02-21T02:49:33.761Z,65.60
2019-02-21T02:52:00.090Z,65.80
2019-02-21T02:54:26.487Z,65.50
2019-02-21T02:56:52.794Z,65.50
2019-02-21T02:59:19.194Z,65.50
2019-02-21T03:01:45.634Z,65.50
2019-02-21T03:04:12.046Z,65.50
2019-02-21T03:06:38.446Z,65.50
2019-02-21T03:09:06.779Z,65.50
2019-02-21T03:11:33.174Z,65.50
2019-02-21T03:13:59.804Z,65.60
2019-02-21T03:16:26.201Z,65.60
2019-02-21T03:18:52.517Z,65.80
2019-02-21T03:21:18.940Z,65.90
2019-02-21T03:23:45.341Z,65.70
2019-02-21T03:26:11.678Z,65.80
2019-02-21T03:28:38.093Z,65.70
2019-02-21T03:31:04.393Z,66.10
2019-02-21T03:33:30.953Z,66.10
2019-02-21T03:35:57.344Z,66.20
2019-02-21T03:38:23.643Z,66.20
2019-02-21T03:40:50.160Z,66.10
2019-02-21T03:43:16.459Z,66.20
2019-02-21T03:45:42.752Z,66.00
2019-02-21T03:48:09.268Z,65.90
2019-02-21T03:50:35.797Z,65.90
2019-02-21T03:53:02.093Z,66.00
2019-02-21T03:55:28.538Z,66.10
2019-02-21T03:57:54.952Z,66.20
2019-02-21T04:00:21.464Z,66.20
2019-02-21T04:02:47.774Z,66.20
2019-02-21T04:05:14.161Z,66.10
2019-02-21T04:07:40.564Z,66.20
2019-02-21T04:10:07.960Z,66.20
2019-02-21T04:12:34.252Z,66.20
2019-02-21T04:15:00.791Z,66.80
2019-02-21T04:17:27.193Z,67.10
2019-02-21T04:19:53.727Z,67.10
2019-02-21T04:22:20.127Z,67.30
2019-02-21T04:24:46.493Z,67.80
2019-02-21T04:27:13.121Z,68.00
2019-02-21T04:29:39.555Z,68.00
2019-02-21T04:32:17.059Z,68.20
2019-02-21T04:34:44.396Z,68.10
2019-02-21T04:37:10.827Z,66.50
2019-02-21T04:39:37.214Z,65.90
2019-02-21T04:42:03.866Z,65.80
2019-02-21T04:44:30.176Z,65.50
2019-02-21T04:46:57.169Z,65.60
2019-02-21T04:49:24.202Z,66.00
2019-02-21T04:51:50.696Z,66.00
2019-02-21T04:54:17.074Z,66.00
2019-02-21T04:56:43.481Z,66.00
2019-02-21T04:59:13.700Z,66.00
2019-02-21T05:01:40.433Z,65.90
2019-02-21T05:04:07.206Z,66.10
2019-02-21T05:06:33.533Z,66.20
2019-02-21T05:08:59.822Z,66.20
2019-02-21T05:11:26.162Z,66.00
2019-02-21T05:13:52.566Z,66.50
2019-02-21T05:16:19.905Z,66.40
2019-02-21T05:18:46.246Z,67.30
2019-02-21T05:21:12.757Z,67.00
2019-02-21T05:23:39.204Z,66.80
2019-02-21T05:26:06.294Z,67.20
2019-02-21T05:28:32.695Z,67.60
2019-02-21T05:31:15.866Z,67.40
2019-02-21T05:33:50.275Z,66.30
2019-02-21T05:36:27.701Z,66.20
2019-02-21T05:39:10.928Z,66.30
2019-02-21T05:41:39.258Z,66.00
2019-02-21T05:44:13.383Z,66.00
2019-02-21T05:46:41.606Z,65.70
2019-02-21T05:49:27.842Z,65.60
2019-02-21T05:51:58.851Z,65.60
2019-02-21T05:54:30.040Z,65.40
2019-02-21T05:57:00.997Z,65.60
2019-02-21T05:59:29.578Z,65.40
2019-02-21T06:02:00.489Z,65.40
2019-02-21T06:04:32.040Z,65.10
2019-02-21T06:07:09.997Z,65.10
2019-02-21T06:09:39.941Z,64.60
2019-02-21T06:12:08.251Z,64.60
2019-02-21T06:14:51.519Z,64.50
2019-02-21T06:17:21.263Z,64.50
2019-02-21T06:19:49.987Z,64.40
2019-02-21T06:22:18.215Z,64.20
2019-02-21T06:24:46.431Z,64.10
2019-02-21T06:27:23.460Z,64.00
2019-02-21T06:30:03.896Z,63.90
2019-02-21T06:32:30.212Z,64.00
2019-02-21T06:34:56.854Z,63.90
2019-02-21T06:37:23.175Z,63.80
2019-02-21T06:39:49.583Z,63.70
2019-02-21T06:42:16.091Z,63.40
2019-02-21T06:44:42.498Z,63.40
2019-02-21T06:47:08.903Z,63.30
2019-02-21T06:49:35.758Z,63.30
2019-02-21T06:52:02.163Z,63.10
2019-02-21T06:54:28.487Z,63.20
2019-02-21T06:56:56.152Z,63.10
2019-02-21T06:59:23.768Z,63.10
2019-02-21T07:01:50.379Z,62.80
2019-02-21T07:04:16.796Z,63.00
2019-02-21T07:06:43.212Z,62.90
2019-02-21T07:09:09.535Z,62.80
2019-02-21T07:11:35.980Z,62.80
2019-02-21T07:14:04.006Z,62.60
2019-02-21T07:16:30.308Z,62.70
2019-02-21T07:18:56.628Z,62.50
2019-02-21T07:21:23.037Z,62.70
2019-02-21T07:23:49.568Z,62.70
2019-02-21T07:26:16.106Z,62.60
2019-02-21T07:28:42.399Z,62.50
2019-02-21T07:31:09.043Z,62.20
2019-02-21T07:33:35.351Z,62.50
2019-02-21T07:36:01.761Z,62.60
2019-02-21T07:38:28.174Z,62.70
2019-02-21T07:40:54.603Z,62.70
2019-02-21T07:43:21.077Z,62.60
2019-02-21T07:45:47.329Z,62.60
2019-02-21T07:48:13.743Z,62.80
2019-02-21T07:50:40.382Z,62.70
2019-02-21T07:53:06.786Z,62.50
2019-02-21T07:55:33.137Z,62.40
2019-02-21T07:57:59.738Z,62.40
2019-02-21T08:00:26.167Z,62.50
2019-02-21T08:02:52.570Z,62.50
2019-02-21T08:05:19.225Z,62.70
2019-02-21T08:07:45.642Z,62.60
2019-02-21T08:10:11.943Z,62.50
2019-02-21T08:12:40.534Z,62.50
2019-02-21T08:15:11.983Z,62.60
2019-02-21T08:17:38.402Z,62.50
2019-02-21T08:20:10.265Z,62.40
2019-02-21T08:22:36.672Z,62.50
2019-02-21T08:25:05.801Z,62.50
2019-02-21T08:27:32.117Z,62.60
2019-02-21T08:29:58.630Z,62.60
2019-02-21T08:32:26.841Z,62.60
2019-02-21T08:34:53.242Z,62.80
2019-02-21T08:37:19.755Z,62.80
2019-02-21T08:39:46.053Z,62.70
2019-02-21T08:42:12.502Z,62.80
2019-02-21T08:44:38.936Z,62.50
2019-02-21T08:47:05.362Z,62.60
2019-02-21T08:49:31.867Z,62.80
2019-02-21T08:51:58.283Z,62.60
2019-02-21T08:54:24.608Z,62.50
2019-02-21T08:56:51.114Z,62.70
2019-02-21T08:59:17.422Z,62.80
2019-02-21T09:01:49.923Z,62.80
2019-02-21T09:04:27.591Z,63.00
2019-02-21T09:06:56.666Z,63.20
2019-02-21T09:09:33.276Z,63.30
2019-02-21T09:12:05.756Z,63.40
2019-02-21T09:14:32.382Z,63.20
2019-02-21T09:17:04.865Z,63.40
2019-02-21T09:19:37.643Z,63.10
2019-02-21T09:22:09.671Z,62.70
2019-02-21T09:24:42.527Z,62.50
2019-02-21T09:27:15.937Z,62.50
2019-02-21T09:29:42.210Z,62.10
2019-02-21T09:32:08.534Z,61.90
2019-02-21T09:34:34.843Z,62.10
2019-02-21T09:37:01.142Z,61.80
2019-02-21T09:39:27.785Z,61.30
2019-02-21T09:41:54.198Z,61.20
2019-02-21T09:44:20.522Z,61.20
2019-02-21T09:46:46.970Z,61.20
2019-02-21T09:49:13.386Z,60.90
2019-02-21T09:51:39.812Z,61.30
2019-02-21T09:54:06.208Z,61.90
2019-02-21T09:56:32.639Z,62.50
2019-02-21T09:58:59.048Z,61.50
2019-02-21T10:01:25.449Z,61.30
2019-02-21T10:03:51.763Z,61.90
2019-02-21T10:06:18.165Z,62.50
2019-02-21T10:08:44.705Z,62.50
2019-02-21T10:11:11.536Z,62.60
2019-02-21T10:13:38.214Z,62.80
2019-02-21T10:16:04.972Z,63.60
2019-02-21T10:18:31.729Z,63.90
2019-02-21T10:20:58.268Z,62.80
2019-02-21T10:23:24.695Z,62.80
2019-02-21T10:25:51.961Z,62.90
2019-02-21T10:28:18.376Z,62.50
2019-02-21T10:30:44.813Z,62.90
2019-02-21T10:33:11.212Z,63.00
2019-02-21T10:35:37.819Z,63.00
2019-02-21T10:38:06.885Z,63.00
2019-02-21T10:40:33.529Z,63.10
2019-02-21T10:43:00.129Z,63.10
2019-02-21T10:45:26.530Z,63.20
2019-02-21T10:47:52.826Z,63.50
2019-02-21T10:50:19.650Z,63.00
2019-02-21T10:52:46.767Z,63.50
2019-02-21T10:55:13.403Z,62.70
2019-02-21T10:57:39.911Z,63.00
2019-02-21T11:00:10.121Z,63.40
2019-02-21T11:02:36.555Z,63.60
2019-02-21T11:05:05.240Z,63.90
2019-02-21T11:07:31.666Z,64.30
2019-02-21T11:09:57.979Z,63.90
2019-02-21T11:12:24.383Z,64.00
2019-02-21T11:14:50.693Z,64.30
2019-02-21T11:17:17.093Z,64.20
2019-02-21T11:19:43.957Z,64.20
2019-02-21T11:22:19.210Z,63.90
2019-02-21T11:24:45.650Z,64.80
2019-02-21T11:27:12.127Z,65.10
2019-02-21T11:29:38.490Z,65.30
2019-02-21T11:32:04.927Z,65.40
2019-02-21T11:34:31.322Z,65.10
2019-02-21T11:36:57.722Z,64.90
2019-02-21T11:39:24.150Z,64.60
2019-02-21T11:41:50.459Z,64.60
2019-02-21T11:44:16.777Z,64.00
2019-02-21T11:46:43.183Z,64.00
2019-02-21T11:49:09.515Z,63.80
2019-02-21T11:51:35.926Z,63.70
2019-02-21T11:54:02.333Z,64.20
2019-02-21T11:56:28.755Z,64.40
2019-02-21T11:58:55.177Z,65.10
2019-02-21T12:01:21.469Z,64.30
2019-02-21T12:03:48.115Z,64.30
2019-02-21T12:06:14.413Z,64.20
2019-02-21T12:08:40.856Z,64.30
2019-02-21T12:11:07.478Z,64.20
2019-02-21T12:13:34.013Z,64.20
2019-02-21T12:16:00.329Z,64.20
2019-02-21T12:18:26.617Z,64.20
2019-02-21T12:20:53.044Z,64.30
2019-02-21T12:23:19.358Z,64.30
2019-02-21T12:25:45.653Z,64.30
2019-02-21T12:28:12.073Z,64.00
2019-02-21T12:30:38.470Z,64.10
2019-02-21T12:33:05.017Z,64.10
2019-02-21T12:35:31.422Z,64.10
2019-02-21T12:37:57.839Z,64.30
2019-02-21T12:40:24.373Z,64.30
2019-02-21T12:42:50.773Z,64.40
2019-02-21T12:45:19.000Z,64.40
2019-02-21T12:47:50.841Z,64.30
2019-02-21T12:50:13.503Z,64.40
2019-02-21T12:52:39.939Z,64.30
2019-02-21T12:55:07.942Z,64.30
2019-02-21T12:57:34.263Z,64.50
2019-02-21T13:00:00.673Z,64.50
2019-02-21T13:02:27.106Z,64.50
2019-02-21T13:04:53.443Z,64.50
2019-02-21T13:07:20.047Z,64.70
2019-02-21T13:09:46.353Z,64.80
2019-02-21T13:12:13.636Z,64.80
2019-02-21T13:14:39.909Z,64.80
2019-02-21T13:17:06.231Z,64.80
2019-02-21T13:19:32.525Z,64.80
2019-02-21T13:21:58.866Z,64.80
2019-02-21T13:24:25.190Z,64.70
2019-02-21T13:26:51.604Z,64.80
2019-02-21T13:29:18.015Z,65.50
2019-02-21T13:31:44.315Z,64.40
2019-02-21T13:34:10.733Z,64.50
2019-02-21T13:36:37.029Z,64.50
2019-02-21T13:39:05.821Z,64.50
2019-02-21T13:41:32.139Z,64.30
2019-02-21T13:43:58.435Z,64.20
2019-02-21T13:46:36.518Z,64.50
2019-02-21T13:48:52.999Z,64.40
2019-02-21T13:51:19.397Z,64.50
2019-02-21T13:53:45.689Z,64.30
2019-02-21T13:56:12.097Z,64.00
2019-02-21T13:58:42.391Z,63.90
2019-02-21T14:01:08.853Z,53.50
2019-02-21T14:03:36.928Z,47.00
2019-02-21T14:06:04.084Z,47.70
2019-02-21T14:08:30.946Z,45.10
2019-02-21T14:10:57.424Z,44.10
2019-02-21T14:13:23.730Z,43.10
2019-02-21T14:15:51.879Z,43.60
2019-02-21T14:18:18.327Z,43.20
2019-02-21T14:20:45.700Z,42.50
2019-02-21T14:23:12.465Z,42.50
2019-02-21T14:25:41.057Z,42.30
2019-02-21T14:28:07.112Z,42.80
2019-02-21T14:30:33.740Z,43.20
2019-02-21T14:33:00.137Z,42.10
2019-02-21T14:35:27.555Z,41.80
2019-02-21T14:37:53.844Z,42.50
2019-02-21T14:40:20.139Z,42.10
2019-02-21T14:42:46.608Z,41.10
2019-02-21T14:45:16.339Z,42.10
2019-02-21T14:47:42.856Z,43.80
2019-02-21T14:50:10.955Z,45.30
2019-02-21T14:52:37.276Z,46.10
2019-02-21T14:55:06.166Z,47.00
2019-02-21T14:57:40.482Z,48.00
2019-02-21T15:00:00.720Z,48.90
2019-02-21T15:02:27.099Z,49.60
2019-02-21T15:04:53.528Z,50.30
2019-02-21T15:07:20.060Z,50.70
2019-02-21T15:09:46.454Z,51.10
2019-02-21T15:12:12.901Z,51.50
2019-02-21T15:14:39.367Z,51.90
2019-02-21T15:17:05.902Z,52.20
2019-02-21T15:19:32.214Z,52.40
2019-02-21T15:21:58.634Z,52.70
2019-02-21T15:24:25.058Z,53.10
2019-02-21T15:26:51.382Z,53.50
2019-02-21T15:29:17.784Z,54.00
2019-02-21T15:31:44.401Z,54.00
2019-02-21T15:34:12.201Z,54.00
2019-02-21T15:36:38.755Z,54.40
2019-02-21T15:39:06.221Z,54.80
2019-02-21T15:41:32.530Z,54.70
2019-02-21T15:43:58.840Z,54.70
2019-02-21T15:46:25.130Z,54.90
2019-02-21T15:48:51.585Z,55.10
2019-02-21T15:51:18.093Z,55.20
2019-02-21T15:53:44.760Z,55.30
2019-02-21T15:56:11.281Z,55.40
2019-02-21T15:58:39.854Z,55.50
2019-02-21T16:01:06.179Z,55.60
2019-02-21T16:03:32.561Z,55.80
2019-02-21T16:05:58.968Z,55.90
2019-02-21T16:08:25.587Z,56.00
2019-02-21T16:10:52.080Z,56.00
2019-02-21T16:13:18.770Z,56.50
2019-02-21T16:15:45.225Z,56.30
2019-02-21T16:18:13.874Z,56.30
2019-02-21T16:20:39.728Z,56.50
2019-02-21T16:23:06.055Z,56.60
2019-02-21T16:25:32.887Z,56.00
2019-02-21T16:27:59.306Z,55.10
2019-02-21T16:30:25.689Z,54.70
2019-02-21T16:32:52.109Z,50.00
2019-02-21T16:35:18.438Z,47.60
2019-02-21T16:37:44.931Z,49.00
2019-02-21T16:40:14.543Z,48.50
2019-02-21T16:42:43.896Z,50.50
2019-02-21T16:45:14.784Z,51.60
2019-02-21T16:47:41.276Z,52.40
2019-02-21T16:50:09.904Z,52.90
2019-02-21T16:52:36.927Z,53.30
2019-02-21T16:55:08.746Z,53.60
2019-02-21T16:57:34.867Z,53.90
2019-02-21T17:00:14.441Z,54.50
2019-02-21T17:02:40.330Z,55.20
2019-02-21T17:05:07.837Z,55.60
2019-02-21T17:07:34.133Z,55.80
2019-02-21T17:10:00.666Z,55.80
2019-02-21T17:12:33.840Z,55.80
2019-02-21T17:15:00.363Z,56.10
2019-02-21T17:17:26.832Z,56.20
2019-02-21T17:19:53.232Z,56.30
2019-02-21T17:22:19.794Z,56.50
2019-02-21T17:24:46.430Z,57.00
2019-02-21T17:27:12.949Z,57.10
2019-02-21T17:29:39.354Z,57.30
2019-02-21T17:32:06.466Z,57.50
2019-02-21T17:34:33.267Z,57.50
2019-02-21T17:36:59.554Z,58.30
2019-02-21T17:39:25.958Z,57.60
2019-02-21T17:41:52.553Z,57.60
2019-02-21T17:44:18.817Z,57.70
2019-02-21T17:46:45.405Z,57.80
2019-02-21T17:49:11.911Z,57.70
2019-02-21T17:51:38.530Z,57.80
2019-02-21T17:54:05.177Z,57.90
2019-02-21T17:56:31.546Z,57.90
2019-02-21T17:58:58.100Z,58.00
2019-02-21T18:01:24.729Z,58.00
2019-02-21T18:03:51.254Z,58.00
2019-02-21T18:06:17.783Z,58.20
2019-02-21T18:08:44.657Z,58.10
2019-02-21T18:11:12.612Z,58.20
2019-02-21T18:13:39.387Z,58.20
2019-02-21T18:16:05.677Z,58.30
2019-02-21T18:18:32.511Z,58.40
2019-02-21T18:20:59.138Z,58.60
2019-02-21T18:23:25.670Z,58.60
2019-02-21T18:25:55.756Z,58.80
2019-02-21T18:28:22.094Z,58.90
2019-02-21T18:30:48.492Z,59.00
2019-02-21T18:33:14.910Z,59.10
2019-02-21T18:35:41.212Z,59.30
2019-02-21T18:38:07.506Z,59.40
2019-02-21T18:40:34.087Z,59.60
2019-02-21T18:43:00.398Z,60.00
2019-02-21T18:45:26.913Z,60.40
2019-02-21T18:47:53.442Z,60.70
2019-02-21T18:50:19.740Z,60.90
2019-02-21T18:52:46.043Z,61.00
2019-02-21T18:55:12.656Z,61.00
2019-02-21T18:57:39.078Z,61.20
2019-02-21T19:00:08.882Z,61.20
2019-02-21T19:02:35.381Z,61.00
2019-02-21T19:05:01.714Z,60.90
2019-02-21T19:07:28.218Z,60.90
2019-02-21T19:09:54.738Z,60.80
2019-02-21T19:12:21.132Z,60.90
2019-02-21T19:14:47.457Z,60.80
2019-02-21T19:17:13.790Z,60.90
2019-02-21T19:19:42.129Z,60.80
2019-02-21T19:22:09.197Z,60.80
2019-02-21T19:24:37.021Z,60.80
2019-02-21T19:27:03.641Z,60.80
2019-02-21T19:29:29.967Z,60.70
2019-02-21T19:31:56.576Z,60.90
2019-02-21T19:34:23.111Z,60.80
2019-02-21T19:36:49.590Z,60.70
2019-02-21T19:39:16.009Z,60.70
2019-02-21T19:41:42.423Z,60.60
2019-02-21T19:44:09.423Z,60.60
2019-02-21T19:46:38.132Z,60.60
2019-02-21T19:49:04.637Z,60.80
2019-02-21T19:51:31.141Z,60.70
2019-02-21T19:53:57.581Z,60.60
2019-02-21T19:56:23.983Z,60.60
2019-02-21T19:58:50.477Z,60.50
2019-02-21T20:01:18.726Z,60.60
2019-02-21T20:03:45.138Z,60.40
2019-02-21T20:06:11.741Z,60.40
2019-02-21T20:08:38.107Z,60.60
2019-02-21T20:11:04.426Z,60.50
2019-02-21T20:13:30.820Z,60.70
2019-02-21T20:15:57.122Z,60.70
2019-02-21T20:18:23.648Z,60.50
2019-02-21T20:20:50.266Z,60.50
2019-02-21T20:23:16.793Z,60.60
2019-02-21T20:25:43.197Z,59.90
2019-02-21T20:28:09.615Z,60.40
2019-02-21T20:30:36.027Z,60.60
2019-02-21T20:33:02.527Z,60.80
2019-02-21T20:35:28.970Z,60.50
2019-02-21T20:37:55.374Z,60.70
2019-02-21T20:40:21.791Z,60.70
2019-02-21T20:42:48.202Z,61.30
2019-02-21T20:45:14.607Z,59.90
2019-02-21T20:47:41.160Z,59.80
2019-02-21T20:50:09.162Z,60.10
2019-02-21T20:52:35.562Z,60.20
2019-02-21T20:55:02.274Z,60.50
2019-02-21T20:57:28.653Z,60.40
2019-02-21T20:59:55.103Z,60.50
2019-02-21T21:02:21.503Z,60.70
2019-02-21T21:04:48.130Z,60.70
2019-02-21T21:07:24.565Z,60.60
2019-02-21T21:09:42.853Z,60.80
2019-02-21T21:12:10.901Z,61.20
2019-02-21T21:14:37.410Z,61.00
2019-02-21T21:17:03.738Z,61.00
2019-02-21T21:19:30.347Z,60.90
2019-02-21T21:21:56.643Z,61.00
2019-02-21T21:24:22.982Z,61.00
2019-02-21T21:26:49.506Z,61.00
2019-02-21T21:29:15.824Z,61.10
2019-02-21T21:31:42.346Z,60.90
2019-02-21T21:34:08.986Z,60.90
2019-02-21T21:36:35.397Z,60.90
2019-02-21T21:39:01.830Z,60.90
2019-02-21T21:41:28.235Z,60.90
2019-02-21T21:43:54.734Z,60.80
2019-02-21T21:46:21.085Z,61.00
2019-02-21T21:48:47.595Z,60.80
2019-02-21T21:51:14.137Z,60.70
2019-02-21T21:53:40.556Z,60.90
2019-02-21T21:56:06.857Z,60.90
2019-02-21T21:58:33.417Z,60.90
2019-02-21T22:00:59.751Z,60.90
2019-02-21T22:03:26.177Z,60.80
2019-02-21T22:05:52.705Z,60.80
2019-02-21T22:08:19.120Z,60.80
2019-02-21T22:10:45.561Z,60.70
2019-02-21T22:13:12.225Z,60.60
2019-02-21T22:15:38.640Z,60.60
2019-02-21T22:18:05.170Z,60.60
2019-02-21T22:20:31.496Z,60.60
2019-02-21T22:22:58.265Z,60.50
2019-02-21T22:25:24.565Z,60.60
2019-02-21T22:27:50.898Z,60.60
2019-02-21T22:30:19.020Z,60.60
2019-02-21T22:32:45.417Z,60.60
2019-02-21T22:35:11.759Z,60.50
2019-02-21T22:37:38.147Z,60.50
2019-02-21T22:40:07.842Z,60.40
2019-02-21T22:42:34.167Z,60.60
2019-02-21T22:45:00.581Z,60.50
2019-02-21T22:47:27.208Z,60.40
2019-02-21T22:49:53.499Z,60.60
2019-02-21T22:52:19.805Z,60.70
2019-02-21T22:54:46.225Z,60.80
2019-02-21T22:57:12.630Z,60.80
2019-02-21T22:59:38.950Z,60.70
2019-02-21T23:02:05.352Z,60.60
2019-02-21T23:04:35.566Z,60.80
2019-02-21T23:07:05.661Z,60.90
2019-02-21T23:09:32.069Z,61.00
2019-02-21T23:11:58.515Z,61.00
2019-02-21T23:14:25.101Z,61.20
2019-02-21T23:16:51.342Z,61.30
2019-02-21T23:19:18.361Z,61.50
2019-02-21T23:21:44.940Z,61.60
2019-02-21T23:24:11.395Z,61.80
2019-02-21T23:26:37.752Z,61.70
2019-02-21T23:29:04.376Z,62.00
2019-02-21T23:31:30.800Z,61.90
2019-02-21T23:34:01.790Z,62.00
2019-02-21T23:36:28.327Z,62.10
2019-02-21T23:38:54.738Z,62.20
2019-02-21T23:41:21.138Z,62.10
2019-02-21T23:43:47.651Z,62.20
2019-02-21T23:46:14.054Z,62.20
2019-02-21T23:48:40.591Z,62.20
2019-02-21T23:51:06.892Z,62.30
2019-02-21T23:53:34.098Z,62.30
2019-02-21T23:56:00.402Z,62.40
2019-02-21T23:58:26.898Z,62.40
